Terminal Aerodrome Forecast
Issued by NWS

Home | Current Version | Previous Version | Text Only | Print | Product List | Glossary Off
Versions: 1 2 3 4 5 6 7 8 9 10 11 12 13 14 15 16 17 18 19

000
FTUS43 KMPX 271700
TAFRNH
TAF
KRNH 271725Z 2718/2818 30007KT P6SM SCT100 BKN150
     FM272200 29005KT P6SM VCSH SCT070 BKN100
     FM280300 27007KT P6SM BKN080
     FM281400 27014G20KT P6SM BKN100=

USA.gov is the U.S. government's official web portal to all federal, state and local government web resources and services.